Bangkok, Thaïlande

09:46 ICT le 26 avril 2015 (GMT +0700)
Khu Khot | | Change Station
CLOSE
Current Station
Stations météorologiques personnelles
Location: Pathum Thani, PATHUM THANI
Altitude: 15 ft
Stations météo à proximité

Alt. 15 ft 13.96 °N, 100.65 °E | Updated 2 seconds ago

Mostly Cloudy
Nuageux
89.8 ° F
Paraît 106 ° F
N
0.0
Vent Variable Vent de ENE
Gusts 1.6 mph

Aujourd'hui
Haut(e) -- | Bas -- ° F
--% Risque de précip.
Hier
Haut(e) -- | Bas -- ° F
Precip. -- pouce
5:58 AM 6:32 PM
Lune montante, 51% visible
Pression 29.92 pouce
Visibilité 5.6 Miles terrestres
Nuages Peu 2000 ft
Nuageux 30000 ft
indice de chaleur 106 ° F
Point de rosée 79 ° F
Humidité 71%
Précipitations 0.37 pouce
Profondeur de la couche neigeuse Non disponible.
UV 6 sur 12
Pollen Non disponible.
Qualité de l'air Non disponible.
Flu Activity Non disponible.
METAR VTBD 260230Z 02005KT 350V050 9000 FEW020 BKN300 30/25 Q1013 NOSIG

More Conditions Fewer Conditions

Pression 29.92 pouce
Visibilité 5.6 Miles terrestres
Nuages Peu 2000 ft
Nuageux 30000 ft
indice de chaleur 106 ° F
Point de rosée 79 ° F
Humidité 71%
Précipitations 0.37 pouce
Profondeur de la couche neigeuse Non disponible.
UV 6 sur 12
Pollen Non disponible.
Qualité de l'air Non disponible.
Flu Activity Non disponible.
METAR VTBD 260230Z 02005KT 350V050 9000 FEW020 BKN300 30/25 Q1013 NOSIG

More Conditions Fewer Conditions

10-Day Weather Forecast

Almanac

Astronomie

Apr. 26, 2015 Lever Coucher
Temps réel
Crépuscule civil
Crépuscule nautique
Crépuscule astronomique
Lune
Durée de lumière visible
Longueur du jour
Tomorrow will be .
, % of the Moon is Illuminated

Extrêmes aujourd'hui

Country Highs Country Lows

Community

WunderPhotos

Upload Photos

1,816,909 Photos téléchargées !

WunderBlogs® & News

Nearby

Qualité de l'air

  Qualité de l'air Indice de la qualité de l'air Polluant
Not available.

Épaisseur de neige

Station Depth Altitude

Activité sismique

Ville Distance Mag. Time & Date
Minimum magnitude displayed is 2.5.

Températures des eaux côtières

Lieu Température

Stations

Stations météo à proximité

Emplacement de la station Température Refroidissement éolien Point de rosée Humidité Vent Precip. Alt. Mise à jour Type